sensor_id;sensor_type;location;lat;lon;timestamp;pressure;altitude;pressure_sealevel;temperature;humidity
11011;BME280;5558;42.702;23.178;2023-05-19T00:02:16;93920.81;;;10.98;100.00
11011;BME280;5558;42.702;23.178;2023-05-19T00:04:45;93905.69;;;10.89;100.00
11011;BME280;5558;42.702;23.178;2023-05-19T00:07:16;93909.41;;;10.93;100.00
11011;BME280;5558;42.702;23.178;2023-05-19T00:09:44;93910.50;;;11.02;100.00
11011;BME280;5558;42.702;23.178;2023-05-19T00:12:12;93904.97;;;11.08;100.00
11011;BME280;5558;42.702;23.178;2023-05-19T00:14:39;93893.53;;;11.03;100.00
11011;BME280;5558;42.702;23.178;2023-05-19T00:17:07;93899.94;;;11.17;100.00
11011;BME280;5558;42.702;23.178;2023-05-19T00:19:34;93907.38;;;11.30;100.00
11011;BME280;5558;42.702;23.178;2023-05-19T00:22:02;93913.50;;;11.36;100.00
11011;BME280;5558;42.702;23.178;2023-05-19T00:24:31;93904.47;;;11.42;100.00
11011;BME280;5558;42.702;23.178;2023-05-19T00:26:57;93901.84;;;11.42;100.00
11011;BME280;5558;42.702;23.178;2023-05-19T00:29:25;93901.53;;;11.28;100.00
11011;BME280;5558;42.702;23.178;2023-05-19T00:31:51;93898.59;;;11.15;100.00
11011;BME280;5558;42.702;23.178;2023-05-19T00:34:18;93898.28;;;11.01;100.00
11011;BME280;5558;42.702;23.178;2023-05-19T00:36:45;93895.91;;;10.94;100.00
11011;BME280;5558;42.702;23.178;2023-05-19T00:39:12;93897.00;;;11.03;100.00
11011;BME280;5558;42.702;23.178;2023-05-19T00:41:40;93898.31;;;11.06;100.00
11011;BME280;5558;42.702;23.178;2023-05-19T00:44:07;93901.50;;;11.08;100.00
11011;BME280;5558;42.702;23.178;2023-05-19T00:46:33;93897.53;;;11.05;100.00
11011;BME280;5558;42.702;23.178;2023-05-19T00:49:00;93898.06;;;11.02;100.00
11011;BME280;5558;42.702;23.178;2023-05-19T00:51:27;93890.88;;;10.93;100.00
11011;BME280;5558;42.702;23.178;2023-05-19T00:53:55;93891.09;;;10.76;100.00
11011;BME280;5558;42.702;23.178;2023-05-19T00:56:23;93881.75;;;10.64;100.00
11011;BME280;5558;42.702;23.178;2023-05-19T00:58:52;93886.00;;;10.60;100.00
11011;BME280;5558;42.702;23.178;2023-05-19T01:01:20;93890.44;;;10.49;100.00
11011;BME280;5558;42.702;23.178;2023-05-19T01:03:47;93885.66;;;10.46;100.00
11011;BME280;5558;42.702;23.178;2023-05-19T01:06:14;93884.84;;;10.41;100.00
11011;BME280;5558;42.702;23.178;2023-05-19T01:08:43;93891.72;;;10.42;100.00
11011;BME280;5558;42.702;23.178;2023-05-19T01:11:10;93891.72;;;10.42;100.00
11011;BME280;5558;42.702;23.178;2023-05-19T01:13:37;93899.59;;;10.32;100.00
11011;BME280;5558;42.702;23.178;2023-05-19T01:16:09;93898.56;;;10.33;100.00
11011;BME280;5558;42.702;23.178;2023-05-19T01:18:54;93895.63;;;10.29;100.00
11011;BME280;5558;42.702;23.178;2023-05-19T01:21:46;93895.09;;;10.27;100.00
11011;BME280;5558;42.702;23.178;2023-05-19T01:24:44;93897.91;;;10.11;100.00
11011;BME280;5558;42.702;23.178;2023-05-19T01:27:32;93899.13;;;10.03;100.00
11011;BME280;5558;42.702;23.178;2023-05-19T01:30:23;93889.34;;;10.04;100.00
11011;BME280;5558;42.702;23.178;2023-05-19T01:32:53;93872.13;;;9.59;100.00
11011;BME280;5558;42.702;23.178;2023-05-19T01:35:22;93898.16;;;9.77;100.00
11011;BME280;5558;42.702;23.178;2023-05-19T01:37:50;93904.38;;;9.61;100.00
11011;BME280;5558;42.702;23.178;2023-05-19T01:40:18;93907.16;;;9.45;100.00
11011;BME280;5558;42.702;23.178;2023-05-19T01:42:46;93908.59;;;9.62;100.00
11011;BME280;5558;42.702;23.178;2023-05-19T01:45:15;93911.81;;;9.64;100.00
11011;BME280;5558;42.702;23.178;2023-05-19T01:47:45;93909.06;;;9.54;100.00
11011;BME280;5558;42.702;23.178;2023-05-19T01:50:12;93914.09;;;9.56;100.00
11011;BME280;5558;42.702;23.178;2023-05-19T01:52:39;93917.81;;;9.55;100.00
11011;BME280;5558;42.702;23.178;2023-05-19T01:55:07;93915.22;;;9.60;100.00
11011;BME280;5558;42.702;23.178;2023-05-19T01:57:42;93908.13;;;9.65;100.00
11011;BME280;5558;42.702;23.178;2023-05-19T02:00:17;93900.38;;;9.59;100.00
11011;BME280;5558;42.702;23.178;2023-05-19T02:02:55;93906.94;;;9.51;100.00
11011;BME280;5558;42.702;23.178;2023-05-19T02:05:30;93916.41;;;9.47;100.00
11011;BME280;5558;42.702;23.178;2023-05-19T02:08:05;93910.53;;;9.40;100.00
11011;BME280;5558;42.702;23.178;2023-05-19T02:10:39;93914.78;;;9.41;100.00
11011;BME280;5558;42.702;23.178;2023-05-19T02:13:10;93906.56;;;9.11;100.00
11011;BME280;5558;42.702;23.178;2023-05-19T02:15:41;93905.16;;;9.04;100.00
11011;BME280;5558;42.702;23.178;2023-05-19T02:18:08;93902.56;;;9.09;100.00
11011;BME280;5558;42.702;23.178;2023-05-19T02:20:36;93910.28;;;9.15;100.00
11011;BME280;5558;42.702;23.178;2023-05-19T02:23:03;93912.00;;;9.00;100.00
11011;BME280;5558;42.702;23.178;2023-05-19T02:25:30;93917.03;;;8.80;100.00
11011;BME280;5558;42.702;23.178;2023-05-19T02:27:57;93930.19;;;8.96;100.00
11011;BME280;5558;42.702;23.178;2023-05-19T02:30:23;93932.19;;;8.89;100.00
11011;BME280;5558;42.702;23.178;2023-05-19T02:32:51;93925.72;;;9.02;100.00
11011;BME280;5558;42.702;23.178;2023-05-19T02:35:18;93927.38;;;9.08;100.00
11011;BME280;5558;42.702;23.178;2023-05-19T02:37:45;93923.59;;;8.99;100.00
11011;BME280;5558;42.702;23.178;2023-05-19T02:40:12;93924.69;;;9.03;100.00
11011;BME280;5558;42.702;23.178;2023-05-19T02:42:39;93925.31;;;9.10;100.00
11011;BME280;5558;42.702;23.178;2023-05-19T02:45:06;93936.50;;;9.22;100.00
11011;BME280;5558;42.702;23.178;2023-05-19T02:47:33;93919.31;;;9.19;100.00
11011;BME280;5558;42.702;23.178;2023-05-19T02:50:01;93938.09;;;9.23;100.00
11011;BME280;5558;42.702;23.178;2023-05-19T02:52:28;93905.91;;;8.99;100.00
11011;BME280;5558;42.702;23.178;2023-05-19T02:54:54;93928.78;;;9.15;100.00
11011;BME280;5558;42.702;23.178;2023-05-19T02:57:21;93932.78;;;9.18;100.00
11011;BME280;5558;42.702;23.178;2023-05-19T02:59:48;93930.59;;;9.10;100.00
11011;BME280;5558;42.702;23.178;2023-05-19T03:02:15;93935.06;;;9.09;100.00
11011;BME280;5558;42.702;23.178;2023-05-19T03:04:41;93936.38;;;9.12;100.00
11011;BME280;5558;42.702;23.178;2023-05-19T03:07:10;93933.91;;;9.00;100.00
11011;BME280;5558;42.702;23.178;2023-05-19T03:09:37;93943.47;;;9.06;100.00
11011;BME280;5558;42.702;23.178;2023-05-19T03:12:05;93949.94;;;9.20;100.00
11011;BME280;5558;42.702;23.178;2023-05-19T03:14:32;93957.94;;;9.25;100.00
11011;BME280;5558;42.702;23.178;2023-05-19T03:16:58;93937.56;;;9.21;100.00
11011;BME280;5558;42.702;23.178;2023-05-19T03:19:26;93959.94;;;9.40;100.00
11011;BME280;5558;42.702;23.178;2023-05-19T03:21:52;93942.78;;;9.42;100.00
11011;BME280;5558;42.702;23.178;2023-05-19T03:24:22;93934.09;;;9.73;100.00
11011;BME280;5558;42.702;23.178;2023-05-19T03:26:49;93940.88;;;10.33;100.00
11011;BME280;5558;42.702;23.178;2023-05-19T03:29:16;93929.97;;;10.71;100.00
11011;BME280;5558;42.702;23.178;2023-05-19T03:31:42;93922.25;;;11.41;100.00
11011;BME280;5558;42.702;23.178;2023-05-19T03:34:09;93927.63;;;11.96;100.00
11011;BME280;5558;42.702;23.178;2023-05-19T03:36:36;93922.47;;;12.60;100.00
11011;BME280;5558;42.702;23.178;2023-05-19T03:39:03;93920.41;;;13.21;100.00
11011;BME280;5558;42.702;23.178;2023-05-19T03:41:31;93912.88;;;13.77;100.00
11011;BME280;5558;42.702;23.178;2023-05-19T03:43:58;93906.91;;;14.28;100.00
11011;BME280;5558;42.702;23.178;2023-05-19T03:46:25;93900.41;;;14.87;100.00
11011;BME280;5558;42.702;23.178;2023-05-19T03:48:52;93860.13;;;15.12;100.00
11011;BME280;5558;42.702;23.178;2023-05-19T03:51:18;93897.31;;;15.64;100.00
11011;BME280;5558;42.702;23.178;2023-05-19T03:53:45;93894.50;;;15.13;100.00
11011;BME280;5558;42.702;23.178;2023-05-19T03:56:13;93908.16;;;14.64;100.00
11011;BME280;5558;42.702;23.178;2023-05-19T03:58:42;93913.31;;;14.22;100.00
11011;BME280;5558;42.702;23.178;2023-05-19T04:01:11;93914.41;;;13.49;100.00
11011;BME280;5558;42.702;23.178;2023-05-19T04:03:38;93904.69;;;13.29;100.00
11011;BME280;5558;42.702;23.178;2023-05-19T04:06:05;93905.63;;;13.05;100.00
11011;BME280;5558;42.702;23.178;2023-05-19T04:08:32;93902.97;;;12.95;100.00
11011;BME280;5558;42.702;23.178;2023-05-19T04:10:58;93905.19;;;12.73;100.00
11011;BME280;5558;42.702;23.178;2023-05-19T04:13:25;93910.28;;;12.54;100.00
11011;BME280;5558;42.702;23.178;2023-05-19T04:15:53;93917.22;;;12.35;100.00
11011;BME280;5558;42.702;23.178;2023-05-19T04:18:20;93920.16;;;12.39;100.00
11011;BME280;5558;42.702;23.178;2023-05-19T04:20:47;93920.81;;;13.43;100.00
11011;BME280;5558;42.702;23.178;2023-05-19T04:23:13;93916.13;;;15.54;100.00
11011;BME280;5558;42.702;23.178;2023-05-19T04:25:40;93919.78;;;17.68;93.39
11011;BME280;5558;42.702;23.178;2023-05-19T04:28:07;93911.00;;;19.99;71.44
11011;BME280;5558;42.702;23.178;2023-05-19T04:30:34;93912.25;;;21.45;61.22
11011;BME280;5558;42.702;23.178;2023-05-19T04:33:04;93915.44;;;23.03;54.43
11011;BME280;5558;42.702;23.178;2023-05-19T04:35:32;93919.09;;;23.55;49.31
11011;BME280;5558;42.702;23.178;2023-05-19T04:37:58;93920.69;;;24.72;47.29
11011;BME280;5558;42.702;23.178;2023-05-19T04:40:26;93916.06;;;25.62;44.20
11011;BME280;5558;42.702;23.178;2023-05-19T04:42:55;93920.25;;;26.44;41.99
11011;BME280;5558;42.702;23.178;2023-05-19T04:45:22;93932.50;;;27.34;38.87
11011;BME280;5558;42.702;23.178;2023-05-19T04:47:50;93927.22;;;27.67;38.09
11011;BME280;5558;42.702;23.178;2023-05-19T04:50:18;93923.19;;;28.32;36.32
11011;BME280;5558;42.702;23.178;2023-05-19T04:52:45;93901.81;;;28.64;35.25
11011;BME280;5558;42.702;23.178;2023-05-19T04:55:11;93930.97;;;29.26;34.00
11011;BME280;5558;42.702;23.178;2023-05-19T04:57:38;93927.97;;;29.82;33.61
11011;BME280;5558;42.702;23.178;2023-05-19T05:00:06;93927.94;;;30.26;32.36
11011;BME280;5558;42.702;23.178;2023-05-19T05:02:37;93911.28;;;30.48;31.71
11011;BME280;5558;42.702;23.178;2023-05-19T05:05:06;93935.00;;;31.13;31.30
11011;BME280;5558;42.702;23.178;2023-05-19T05:07:35;93932.34;;;31.34;30.33
11011;BME280;5558;42.702;23.178;2023-05-19T05:10:01;93932.94;;;30.88;30.49
11011;BME280;5558;42.702;23.178;2023-05-19T05:12:30;93931.84;;;31.11;30.43
11011;BME280;5558;42.702;23.178;2023-05-19T05:14:57;93933.25;;;30.69;30.84
11011;BME280;5558;42.702;23.178;2023-05-19T05:17:24;93936.97;;;31.23;29.63
11011;BME280;5558;42.702;23.178;2023-05-19T05:19:51;93933.97;;;31.84;29.48
11011;BME280;5558;42.702;23.178;2023-05-19T05:22:19;93932.41;;;32.04;28.86
11011;BME280;5558;42.702;23.178;2023-05-19T05:24:48;93941.81;;;31.92;28.84
11011;BME280;5558;42.702;23.178;2023-05-19T05:27:15;93940.22;;;31.81;29.01
11011;BME280;5558;42.702;23.178;2023-05-19T05:29:41;93940.22;;;32.37;28.54
11011;BME280;5558;42.702;23.178;2023-05-19T05:32:08;93931.41;;;33.05;28.08
11011;BME280;5558;42.702;23.178;2023-05-19T05:34:35;93931.88;;;33.66;26.49
11011;BME280;5558;42.702;23.178;2023-05-19T05:37:04;93938.34;;;33.96;26.37
11011;BME280;5558;42.702;23.178;2023-05-19T05:39:31;93942.38;;;33.78;26.02
11011;BME280;5558;42.702;23.178;2023-05-19T05:41:59;93937.06;;;34.11;25.83
11011;BME280;5558;42.702;23.178;2023-05-19T05:44:26;93939.16;;;34.37;25.59
11011;BME280;5558;42.702;23.178;2023-05-19T05:46:53;93914.47;;;34.71;25.33
11011;BME280;5558;42.702;23.178;2023-05-19T05:49:20;93943.28;;;34.97;24.70
11011;BME280;5558;42.702;23.178;2023-05-19T05:51:48;93942.53;;;34.93;24.94
11011;BME280;5558;42.702;23.178;2023-05-19T05:54:17;93944.16;;;35.20;24.53
11011;BME280;5558;42.702;23.178;2023-05-19T05:56:44;93951.59;;;35.23;24.62
11011;BME280;5558;42.702;23.178;2023-05-19T05:59:13;93943.88;;;35.11;23.90
11011;BME280;5558;42.702;23.178;2023-05-19T06:01:40;93951.88;;;35.02;24.90
11011;BME280;5558;42.702;23.178;2023-05-19T06:04:08;93957.31;;;34.28;25.70
11011;BME280;5558;42.702;23.178;2023-05-19T06:06:35;93957.78;;;35.01;24.81
11011;BME280;5558;42.702;23.178;2023-05-19T06:09:02;93950.38;;;35.58;23.45
11011;BME280;5558;42.702;23.178;2023-05-19T06:11:29;93952.75;;;35.26;23.74
11011;BME280;5558;42.702;23.178;2023-05-19T06:13:56;93957.69;;;35.41;23.37
11011;BME280;5558;42.702;23.178;2023-05-19T06:16:24;93947.31;;;35.52;23.48
11011;BME280;5558;42.702;23.178;2023-05-19T06:18:51;93951.94;;;35.59;23.64
11011;BME280;5558;42.702;23.178;2023-05-19T06:21:18;93957.97;;;35.77;23.52
11011;BME280;5558;42.702;23.178;2023-05-19T06:23:44;93952.69;;;36.13;23.34
11011;BME280;5558;42.702;23.178;2023-05-19T06:26:11;93960.19;;;35.59;23.44
11011;BME280;5558;42.702;23.178;2023-05-19T06:28:38;93946.78;;;35.61;23.17
11011;BME280;5558;42.702;23.178;2023-05-19T06:31:05;93961.38;;;35.28;23.30
11011;BME280;5558;42.702;23.178;2023-05-19T06:33:33;93958.66;;;34.94;23.82
11011;BME280;5558;42.702;23.178;2023-05-19T06:35:59;93960.00;;;35.13;24.53
11011;BME280;5558;42.702;23.178;2023-05-19T06:38:26;93961.09;;;34.48;24.50
11011;BME280;5558;42.702;23.178;2023-05-19T06:40:53;93957.97;;;33.91;25.19
11011;BME280;5558;42.702;23.178;2023-05-19T06:43:19;93951.75;;;33.84;25.55
11011;BME280;5558;42.702;23.178;2023-05-19T06:45:46;93951.34;;;33.89;25.05
11011;BME280;5558;42.702;23.178;2023-05-19T06:48:13;93954.56;;;34.28;25.24
11011;BME280;5558;42.702;23.178;2023-05-19T06:50:41;93932.97;;;33.10;25.16
11011;BME280;5558;42.702;23.178;2023-05-19T06:53:08;93946.31;;;33.11;26.19
11011;BME280;5558;42.702;23.178;2023-05-19T06:55:34;93955.38;;;32.87;26.48
11011;BME280;5558;42.702;23.178;2023-05-19T06:58:01;93957.84;;;31.90;27.52
11011;BME280;5558;42.702;23.178;2023-05-19T07:00:28;93959.97;;;31.00;29.30
11011;BME280;5558;42.702;23.178;2023-05-19T07:02:54;93950.63;;;31.16;28.61
11011;BME280;5558;42.702;23.178;2023-05-19T07:05:21;93961.81;;;30.21;29.69
11011;BME280;5558;42.702;23.178;2023-05-19T07:07:49;93960.22;;;28.96;31.15
11011;BME280;5558;42.702;23.178;2023-05-19T07:10:16;93962.03;;;29.18;31.50
11011;BME280;5558;42.702;23.178;2023-05-19T07:12:43;93963.44;;;27.71;32.76
11011;BME280;5558;42.702;23.178;2023-05-19T07:15:10;93954.53;;;26.33;35.28
11011;BME280;5558;42.702;23.178;2023-05-19T07:17:37;93958.25;;;26.10;36.07
11011;BME280;5558;42.702;23.178;2023-05-19T07:20:04;93963.56;;;26.03;37.01
11011;BME280;5558;42.702;23.178;2023-05-19T07:22:34;93960.75;;;25.68;37.70
11011;BME280;5558;42.702;23.178;2023-05-19T07:25:02;93963.63;;;25.91;37.50
11011;BME280;5558;42.702;23.178;2023-05-19T07:27:29;93967.81;;;26.04;37.36
11011;BME280;5558;42.702;23.178;2023-05-19T07:29:56;93965.53;;;25.90;37.59
11011;BME280;5558;42.702;23.178;2023-05-19T07:32:23;93967.91;;;25.02;38.36
11011;BME280;5558;42.702;23.178;2023-05-19T07:34:50;93971.03;;;23.61;40.42
11011;BME280;5558;42.702;23.178;2023-05-19T07:37:17;93965.59;;;22.59;41.13
11011;BME280;5558;42.702;23.178;2023-05-19T07:39:43;93959.84;;;22.61;44.29
11011;BME280;5558;42.702;23.178;2023-05-19T07:42:11;93960.56;;;22.29;44.04
11011;BME280;5558;42.702;23.178;2023-05-19T07:44:38;93953.28;;;22.09;47.67
11011;BME280;5558;42.702;23.178;2023-05-19T07:47:05;93954.91;;;21.34;48.46
11011;BME280;5558;42.702;23.178;2023-05-19T07:49:31;93959.31;;;21.47;46.49
11011;BME280;5558;42.702;23.178;2023-05-19T07:51:58;93954.09;;;21.42;47.07
11011;BME280;5558;42.702;23.178;2023-05-19T07:54:25;93964.78;;;21.30;49.51
11011;BME280;5558;42.702;23.178;2023-05-19T07:56:52;93957.03;;;20.40;50.01
11011;BME280;5558;42.702;23.178;2023-05-19T07:59:20;93959.41;;;20.16;51.17
11011;BME280;5558;42.702;23.178;2023-05-19T08:01:46;93956.53;;;20.04;55.48
11011;BME280;5558;42.702;23.178;2023-05-19T08:04:13;93956.97;;;19.80;55.28
11011;BME280;5558;42.702;23.178;2023-05-19T08:06:40;93953.56;;;20.48;54.50
11011;BME280;5558;42.702;23.178;2023-05-19T08:09:08;93954.97;;;20.45;54.42
11011;BME280;5558;42.702;23.178;2023-05-19T08:11:35;93951.63;;;20.40;55.20
11011;BME280;5558;42.702;23.178;2023-05-19T08:14:02;93959.53;;;20.62;53.91
11011;BME280;5558;42.702;23.178;2023-05-19T08:16:30;93944.41;;;21.12;54.37
11011;BME280;5558;42.702;23.178;2023-05-19T08:18:57;93953.09;;;20.37;60.52
11011;BME280;5558;42.702;23.178;2023-05-19T08:21:26;93945.81;;;20.29;58.89
11011;BME280;5558;42.702;23.178;2023-05-19T08:23:53;93949.91;;;19.36;60.79
11011;BME280;5558;42.702;23.178;2023-05-19T08:26:21;93944.56;;;19.54;60.82
11011;BME280;5558;42.702;23.178;2023-05-19T08:28:48;93948.88;;;19.63;63.30
11011;BME280;5558;42.702;23.178;2023-05-19T08:31:14;93949.94;;;19.45;65.24
11011;BME280;5558;42.702;23.178;2023-05-19T08:33:44;93954.84;;;19.12;65.11
11011;BME280;5558;42.702;23.178;2023-05-19T08:36:11;93939.31;;;19.31;66.12
11011;BME280;5558;42.702;23.178;2023-05-19T08:38:38;93948.41;;;19.70;67.80
11011;BME280;5558;42.702;23.178;2023-05-19T08:41:04;93952.38;;;19.89;63.40
11011;BME280;5558;42.702;23.178;2023-05-19T08:43:31;93940.25;;;20.09;60.79
11011;BME280;5558;42.702;23.178;2023-05-19T08:45:58;93947.38;;;20.39;59.58
11011;BME280;5558;42.702;23.178;2023-05-19T08:48:28;93940.41;;;20.12;59.01
11011;BME280;5558;42.702;23.178;2023-05-19T08:51:04;93939.31;;;20.39;58.52
11011;BME280;5558;42.702;23.178;2023-05-19T08:53:39;93951.19;;;20.29;61.43
11011;BME280;5558;42.702;23.178;2023-05-19T08:56:10;93939.63;;;20.54;59.26
11011;BME280;5558;42.702;23.178;2023-05-19T08:58:38;93944.06;;;20.25;60.04
11011;BME280;5558;42.702;23.178;2023-05-19T09:01:06;93942.34;;;20.29;60.71
11011;BME280;5558;42.702;23.178;2023-05-19T09:03:33;93946.72;;;19.99;60.58
11011;BME280;5558;42.702;23.178;2023-05-19T09:06:05;93945.78;;;19.30;65.08
11011;BME280;5558;42.702;23.178;2023-05-19T09:08:32;93941.75;;;19.11;63.92
11011;BME280;5558;42.702;23.178;2023-05-19T09:10:59;93948.34;;;18.74;69.95
11011;BME280;5558;42.702;23.178;2023-05-19T09:13:26;93938.00;;;18.90;67.33
11011;BME280;5558;42.702;23.178;2023-05-19T09:15:55;93934.13;;;19.04;62.28
11011;BME280;5558;42.702;23.178;2023-05-19T09:18:23;93914.56;;;19.04;64.42
11011;BME280;5558;42.702;23.178;2023-05-19T09:20:50;93936.78;;;18.96;64.38
11011;BME280;5558;42.702;23.178;2023-05-19T09:23:26;93935.59;;;18.80;70.66
11011;BME280;5558;42.702;23.178;2023-05-19T09:25:54;93929.41;;;19.10;62.77
11011;BME280;5558;42.702;23.178;2023-05-19T09:28:25;93923.28;;;19.74;64.65
11011;BME280;5558;42.702;23.178;2023-05-19T09:31:00;93927.88;;;19.65;59.96
11011;BME280;5558;42.702;23.178;2023-05-19T09:33:28;93919.22;;;19.29;65.91
11011;BME280;5558;42.702;23.178;2023-05-19T09:35:55;93926.72;;;19.49;69.59
11011;BME280;5558;42.702;23.178;2023-05-19T09:38:24;93925.06;;;19.70;65.21
11011;BME280;5558;42.702;23.178;2023-05-19T09:40:52;93923.50;;;20.20;69.81
11011;BME280;5558;42.702;23.178;2023-05-19T09:43:20;93930.84;;;19.55;65.32
11011;BME280;5558;42.702;23.178;2023-05-19T09:45:47;93929.97;;;19.85;65.63
11011;BME280;5558;42.702;23.178;2023-05-19T09:48:14;93933.00;;;20.18;59.68
11011;BME280;5558;42.702;23.178;2023-05-19T09:50:42;93932.47;;;19.65;56.60
11011;BME280;5558;42.702;23.178;2023-05-19T09:53:12;93919.84;;;20.08;65.77
11011;BME280;5558;42.702;23.178;2023-05-19T09:55:40;93914.47;;;20.42;57.69
11011;BME280;5558;42.702;23.178;2023-05-19T09:58:09;93921.47;;;20.26;58.09
11011;BME280;5558;42.702;23.178;2023-05-19T10:00:36;93921.91;;;20.45;59.52
11011;BME280;5558;42.702;23.178;2023-05-19T10:03:03;93924.16;;;21.06;56.58
11011;BME280;5558;42.702;23.178;2023-05-19T10:05:31;93919.69;;;21.19;55.23
11011;BME280;5558;42.702;23.178;2023-05-19T10:07:59;93909.53;;;21.16;54.65
11011;BME280;5558;42.702;23.178;2023-05-19T10:10:26;93914.06;;;20.86;55.17
11011;BME280;5558;42.702;23.178;2023-05-19T10:12:55;93911.34;;;20.95;56.38
11011;BME280;5558;42.702;23.178;2023-05-19T10:15:25;93913.56;;;21.01;56.76
11011;BME280;5558;42.702;23.178;2023-05-19T10:17:52;93915.88;;;21.49;54.57
11011;BME280;5558;42.702;23.178;2023-05-19T10:20:20;93903.72;;;21.14;56.35
11011;BME280;5558;42.702;23.178;2023-05-19T10:22:47;93910.69;;;21.44;56.75
11011;BME280;5558;42.702;23.178;2023-05-19T10:25:14;93906.13;;;20.98;49.47
11011;BME280;5558;42.702;23.178;2023-05-19T10:27:48;93901.84;;;21.35;51.21
11011;BME280;5558;42.702;23.178;2023-05-19T10:30:22;93900.84;;;21.19;54.88
11011;BME280;5558;42.702;23.178;2023-05-19T10:32:51;93893.88;;;21.09;54.42
11011;BME280;5558;42.702;23.178;2023-05-19T10:35:46;93891.88;;;20.98;56.43
11011;BME280;5558;42.702;23.178;2023-05-19T10:38:26;93890.34;;;20.80;53.72
11011;BME280;5558;42.702;23.178;2023-05-19T10:41:02;93894.91;;;20.24;54.40
11011;BME280;5558;42.702;23.178;2023-05-19T10:43:42;93891.56;;;19.93;53.30
11011;BME280;5558;42.702;23.178;2023-05-19T10:46:13;93888.56;;;20.20;53.76
11011;BME280;5558;42.702;23.178;2023-05-19T10:48:43;93887.91;;;19.81;54.00
11011;BME280;5558;42.702;23.178;2023-05-19T10:51:10;93886.47;;;19.58;54.56
11011;BME280;5558;42.702;23.178;2023-05-19T10:53:40;93886.50;;;19.92;58.33
11011;BME280;5558;42.702;23.178;2023-05-19T10:56:10;93885.38;;;20.01;56.74
11011;BME280;5558;42.702;23.178;2023-05-19T10:58:38;93845.41;;;19.91;53.82
11011;BME280;5558;42.702;23.178;2023-05-19T11:01:06;93885.06;;;20.28;54.68
11011;BME280;5558;42.702;23.178;2023-05-19T11:03:49;93844.09;;;20.14;53.89
11011;BME280;5558;42.702;23.178;2023-05-19T11:06:17;93885.19;;;20.49;54.29
11011;BME280;5558;42.702;23.178;2023-05-19T11:08:44;93880.16;;;20.47;53.81
11011;BME280;5558;42.702;23.178;2023-05-19T11:11:13;93884.28;;;20.11;53.35
11011;BME280;5558;42.702;23.178;2023-05-19T11:13:43;93884.44;;;19.80;54.82
11011;BME280;5558;42.702;23.178;2023-05-19T11:16:12;93886.00;;;19.73;55.77
11011;BME280;5558;42.702;23.178;2023-05-19T11:18:39;93876.06;;;19.82;53.44
11011;BME280;5558;42.702;23.178;2023-05-19T11:21:07;93883.50;;;20.10;55.25
11011;BME280;5558;42.702;23.178;2023-05-19T11:23:37;93881.13;;;20.26;52.80
11011;BME280;5558;42.702;23.178;2023-05-19T11:26:06;93884.38;;;20.57;50.88
11011;BME280;5558;42.702;23.178;2023-05-19T11:28:34;93882.50;;;20.57;52.01
11011;BME280;5558;42.702;23.178;2023-05-19T11:31:01;93880.97;;;20.31;49.33
11011;BME280;5558;42.702;23.178;2023-05-19T11:33:28;93869.72;;;20.37;51.50
11011;BME280;5558;42.702;23.178;2023-05-19T11:35:57;93868.59;;;20.93;52.39
11011;BME280;5558;42.702;23.178;2023-05-19T11:38:26;93867.31;;;21.37;50.03
11011;BME280;5558;42.702;23.178;2023-05-19T11:40:54;93872.34;;;21.09;49.37
11011;BME280;5558;42.702;23.178;2023-05-19T11:43:22;93873.88;;;20.81;50.51
11011;BME280;5558;42.702;23.178;2023-05-19T11:45:48;93872.53;;;20.96;49.95
11011;BME280;5558;42.702;23.178;2023-05-19T11:48:15;93865.25;;;21.05;49.47
11011;BME280;5558;42.702;23.178;2023-05-19T11:50:42;93863.84;;;21.07;49.56
11011;BME280;5558;42.702;23.178;2023-05-19T11:53:11;93865.13;;;21.01;49.21
11011;BME280;5558;42.702;23.178;2023-05-19T11:55:43;93858.50;;;20.90;51.52
11011;BME280;5558;42.702;23.178;2023-05-19T11:58:10;93872.69;;;20.62;50.22
11011;BME280;5558;42.702;23.178;2023-05-19T12:00:38;93859.97;;;20.71;52.50
11011;BME280;5558;42.702;23.178;2023-05-19T12:03:06;93832.44;;;19.85;54.82
11011;BME280;5558;42.702;23.178;2023-05-19T12:05:35;93867.50;;;19.46;53.18
11011;BME280;5558;42.702;23.178;2023-05-19T12:08:03;93870.81;;;19.51;54.09
11011;BME280;5558;42.702;23.178;2023-05-19T12:10:30;93874.94;;;19.09;53.73
11011;BME280;5558;42.702;23.178;2023-05-19T12:13:00;93869.41;;;18.97;55.73
11011;BME280;5558;42.702;23.178;2023-05-19T12:15:27;93872.84;;;18.89;58.13
11011;BME280;5558;42.702;23.178;2023-05-19T12:17:56;93879.63;;;18.56;62.79
11011;BME280;5558;42.702;23.178;2023-05-19T12:20:24;93887.19;;;17.88;69.29
11011;BME280;5558;42.702;23.178;2023-05-19T12:22:51;93890.41;;;17.27;74.72
11011;BME280;5558;42.702;23.178;2023-05-19T12:25:19;93893.88;;;17.00;74.19
11011;BME280;5558;42.702;23.178;2023-05-19T12:27:46;93895.25;;;16.84;75.77
11011;BME280;5558;42.702;23.178;2023-05-19T12:30:15;93906.66;;;16.44;82.96
11011;BME280;5558;42.702;23.178;2023-05-19T12:32:42;93905.44;;;16.23;84.58
11011;BME280;5558;42.702;23.178;2023-05-19T12:35:09;93897.94;;;15.93;89.98
11011;BME280;5558;42.702;23.178;2023-05-19T12:37:40;93917.06;;;15.63;94.04
11011;BME280;5558;42.702;23.178;2023-05-19T12:40:08;93909.03;;;15.44;98.89
11011;BME280;5558;42.702;23.178;2023-05-19T12:42:35;93893.56;;;15.23;100.00
11011;BME280;5558;42.702;23.178;2023-05-19T12:45:03;93896.72;;;15.06;100.00
11011;BME280;5558;42.702;23.178;2023-05-19T12:47:32;93905.34;;;15.22;100.00
11011;BME280;5558;42.702;23.178;2023-05-19T12:50:04;93909.16;;;15.34;100.00
11011;BME280;5558;42.702;23.178;2023-05-19T12:52:33;93899.91;;;15.50;100.00
11011;BME280;5558;42.702;23.178;2023-05-19T12:55:01;93892.47;;;15.84;100.00
11011;BME280;5558;42.702;23.178;2023-05-19T12:57:30;93897.31;;;16.15;100.00
11011;BME280;5558;42.702;23.178;2023-05-19T13:00:01;93874.91;;;16.43;98.36
11011;BME280;5558;42.702;23.178;2023-05-19T13:02:34;93890.13;;;16.88;100.00
11011;BME280;5558;42.702;23.178;2023-05-19T13:05:01;93885.06;;;17.14;90.22